Time;durP1;ratioP1;P1;durP2;ratioP2;P2;SDS_P1;SDS_P2;PMS_P1;PMS_P2;Temp;Humidity;BMP_temperature;BMP_pressure;BME280_temperature;BME280_humidity;BME280_pressure;Samples;Min_cycle;Max_cycle;Signal;HPM_P1;HPM_P2
2023/09/26 17:25:51;;;;;;;;;;;16.40;94.80;;;;;;5044541;28;19978;-67
2023/09/26 17:28:17;;;;;;;;;;;16.50;94.90;;;;;;5053945;28;20001;-66
2023/09/26 17:30:44;;;;;;;;;;;16.40;95.00;;;;;;5035825;28;19908;-67
2023/09/26 17:33:11;;;;;;;;;;;16.50;95.00;;;;;;5019991;28;20374;-67
2023/09/26 17:35:39;;;;;;;;;;;16.40;95.00;;;;;;5052979;28;19909;-66
2023/09/26 17:38:06;;;;;;;;;;;16.40;95.00;;;;;;5052124;28;19995;-67
2023/09/26 17:40:32;;;;;;;;;;;16.50;95.10;;;;;;5036148;28;19964;-66
2023/09/26 17:42:59;;;;;;;;;;;16.40;95.10;;;;;;5052948;28;19912;-69
2023/09/26 17:45:25;;;;;;;;;;;16.50;95.10;;;;;;5052487;28;19920;-67
2023/09/26 17:47:52;;;;;;;;;;;16.50;95.00;;;;;;5052381;28;20428;-68
2023/09/26 17:50:18;;;;;;;;;;;16.50;95.00;;;;;;5051969;28;19959;-68
2023/09/26 17:52:45;;;;;;;;;;;16.40;94.90;;;;;;5053318;28;19911;-66
2023/09/26 17:55:12;;;;;;;;;;;16.40;94.90;;;;;;5035664;28;19908;-66
2023/09/26 17:57:39;;;;;;;;;;;16.40;94.90;;;;;;5051610;28;19994;-66
2023/09/26 18:00:06;;;;;;;;;;;16.40;94.90;;;;;;5033926;28;19956;-66
2023/09/26 18:02:33;;;;;;;;;;;16.40;94.90;;;;;;5033974;28;20406;-66
2023/09/26 18:04:59;;;;;;;;;;;16.40;94.90;;;;;;5033706;28;19952;-66
2023/09/26 18:07:26;;;;;;;;;;;16.30;94.90;;;;;;5033836;28;19908;-66
2023/09/26 18:09:52;;;;;;;;;;;16.30;94.90;;;;;;5048634;28;19952;-66
2023/09/26 18:12:19;;;;;;;;;;;16.30;94.90;;;;;;5051280;28;20256;-66
2023/09/26 18:14:46;;;;;;;;;;;16.40;95.00;;;;;;5052182;28;19975;-67
2023/09/26 18:17:12;;;;;;;;;;;16.40;95.00;;;;;;5052243;28;20363;-67
2023/09/26 18:19:39;;;;;;;;;;;16.40;95.00;;;;;;5045725;28;19963;-67
2023/09/26 18:22:05;;;;;;;;;;;16.40;95.00;;;;;;5052922;28;19915;-67
2023/09/26 18:24:32;;;;;;;;;;;16.40;94.90;;;;;;5051086;28;19926;-66
2023/09/26 18:26:58;;;;;;;;;;;16.40;95.00;;;;;;5049048;28;19975;-67
2023/09/26 18:29:25;;;;;;;;;;;16.40;95.00;;;;;;5034065;28;19913;-66
2023/09/26 18:31:53;;;;;;;;;;;16.40;95.00;;;;;;5033520;28;19932;-66
2023/09/26 18:34:19;;;;;;;;;;;16.40;95.10;;;;;;5033746;28;19908;-66
2023/09/26 18:36:46;;;;;;;;;;;16.40;95.10;;;;;;5050486;28;19974;-66
2023/09/26 18:39:13;;;;;;;;;;;16.40;95.00;;;;;;5034011;28;19916;-69
2023/09/26 18:41:39;;;;;;;;;;;16.40;94.90;;;;;;5049805;28;19908;-68
2023/09/26 18:44:06;;;;;;;;;;;16.40;94.90;;;;;;5051817;28;19915;-66
2023/09/26 18:46:33;;;;;;;;;;;16.30;95.00;;;;;;5051687;28;19909;-65
2023/09/26 18:49:00;;;;;;;;;;;16.30;95.00;;;;;;5051925;28;19915;-66
2023/09/26 18:51:27;;;;;;;;;;;16.30;94.90;;;;;;5051251;28;19917;-66
2023/09/26 18:53:53;;;;;;;;;;;16.30;94.90;;;;;;5033666;28;19913;-67
2023/09/26 18:56:20;;;;;;;;;;;16.30;94.90;;;;;;5032937;28;19913;-68
2023/09/26 18:58:48;;;;;;;;;;;16.30;94.90;;;;;;5017552;28;19915;-66
2023/09/26 19:01:15;;;;;;;;;;;16.20;94.80;;;;;;5033615;28;19970;-66
2023/09/26 19:03:41;;;;;;;;;;;16.20;94.80;;;;;;5034152;28;19964;-66
2023/09/26 19:06:08;;;;;;;;;;;16.20;94.80;;;;;;5052583;28;19905;-66
2023/09/26 19:08:37;;;;;;;;;;;16.20;94.80;;;;;;5034664;28;19911;-66
2023/09/26 19:11:04;;;;;;;;;;;16.30;94.90;;;;;;5052416;28;19908;-66
2023/09/26 19:13:31;;;;;;;;;;;16.20;94.80;;;;;;5052340;28;19905;-67
2023/09/26 19:15:57;;;;;;;;;;;16.20;94.80;;;;;;5051048;28;19923;-66
2023/09/26 19:18:24;;;;;;;;;;;16.20;94.70;;;;;;5014660;28;19915;-67
2023/09/26 19:20:51;;;;;;;;;;;16.20;94.70;;;;;;5040042;28;19943;-67
2023/09/26 19:23:18;;;;;;;;;;;16.20;94.70;;;;;;5052404;28;19904;-66
2023/09/26 19:25:44;;;;;;;;;;;16.20;94.70;;;;;;5052288;28;19928;-66
2023/09/26 19:28:14;;;;;;;;;;;16.20;94.70;;;;;;5034735;28;19951;-66
2023/09/26 19:30:41;;;;;;;;;;;16.20;94.60;;;;;;5052296;28;19947;-67
2023/09/26 19:33:07;;;;;;;;;;;16.10;94.60;;;;;;5052250;28;19959;-67
2023/09/26 19:35:34;;;;;;;;;;;16.10;94.50;;;;;;5051049;28;20409;-67
2023/09/26 19:38:01;;;;;;;;;;;16.10;94.60;;;;;;5050050;28;19917;-67
2023/09/26 19:40:27;;;;;;;;;;;16.10;94.60;;;;;;5051121;28;19952;-67
2023/09/26 19:42:54;;;;;;;;;;;16.10;94.70;;;;;;5051228;28;19913;-67
2023/09/26 19:45:21;;;;;;;;;;;16.10;94.50;;;;;;5052363;28;19936;-67
2023/09/26 19:47:48;;;;;;;;;;;16.10;94.60;;;;;;5032796;28;19919;-66
2023/09/26 19:50:14;;;;;;;;;;;16.10;94.50;;;;;;5016177;28;19943;-67
2023/09/26 19:52:41;;;;;;;;;;;16.10;94.60;;;;;;5018269;28;20401;-66
2023/09/26 19:55:10;;;;;;;;;;;16.10;94.60;;;;;;5055190;28;19912;-67
2023/09/26 19:57:37;;;;;;;;;;;16.10;94.70;;;;;;5053304;28;20290;-67
2023/09/26 20:00:09;;;;;;;;;;;16.20;94.60;;;;;;5054734;28;19915;-67
2023/09/26 20:02:36;;;;;;;;;;;16.10;94.60;;;;;;5055012;28;19923;-67
2023/09/26 20:05:03;;;;;;;;;;;16.10;94.60;;;;;;5054879;28;19956;-67
2023/09/26 20:07:30;;;;;;;;;;;16.10;94.50;;;;;;5052990;28;19912;-67
2023/09/26 20:09:56;;;;;;;;;;;16.10;94.60;;;;;;5053908;28;20365;-67
2023/09/26 20:12:23;;;;;;;;;;;16.10;94.60;;;;;;5054815;28;19962;-67
2023/09/26 20:14:49;;;;;;;;;;;16.10;94.70;;;;;;5054932;28;19913;-67
2023/09/26 20:17:16;;;;;;;;;;;16.10;94.80;;;;;;5054199;28;19917;-67
2023/09/26 20:19:42;;;;;;;;;;;16.10;94.70;;;;;;5049858;28;20454;-67
2023/09/26 20:22:09;;;;;;;;;;;16.10;94.70;;;;;;5054187;28;19909;-67
2023/09/26 20:24:36;;;;;;;;;;;16.10;94.70;;;;;;5054387;28;19913;-67
2023/09/26 20:27:04;;;;;;;;;;;16.20;94.70;;;;;;5054805;28;19917;-66
2023/09/26 20:29:31;;;;;;;;;;;16.20;94.70;;;;;;5054416;28;19909;-66
2023/09/26 20:31:58;;;;;;;;;;;16.20;94.80;;;;;;5053293;28;19909;-67
2023/09/26 20:34:25;;;;;;;;;;;16.20;94.80;;;;;;5036415;28;19935;-67
2023/09/26 20:36:51;;;;;;;;;;;16.20;94.80;;;;;;5054129;28;19917;-67
2023/09/26 20:39:18;;;;;;;;;;;16.20;94.90;;;;;;5053086;28;19994;-67
2023/09/26 20:41:45;;;;;;;;;;;16.30;94.90;;;;;;5053476;28;19976;-67
2023/09/26 20:44:11;;;;;;;;;;;16.30;94.90;;;;;;5053752;28;20256;-67
2023/09/26 20:46:38;;;;;;;;;;;16.40;95.00;;;;;;5052437;28;19952;-67
2023/09/26 20:49:04;;;;;;;;;;;16.40;95.10;;;;;;5053783;28;19929;-66
2023/09/26 20:51:31;;;;;;;;;;;16.50;95.00;;;;;;5036534;28;20367;-66
2023/09/26 20:53:58;;;;;;;;;;;16.50;95.00;;;;;;5053479;28;19912;-66
2023/09/26 20:56:24;;;;;;;;;;;16.50;95.10;;;;;;5052648;28;19916;-67
2023/09/26 20:58:51;;;;;;;;;;;16.50;95.10;;;;;;5053539;28;20400;-67
2023/09/26 21:01:17;;;;;;;;;;;16.60;95.10;;;;;;5054423;28;19927;-66
2023/09/26 21:03:44;;;;;;;;;;;16.70;95.20;;;;;;5053767;28;20015;-66
2023/09/26 21:06:11;;;;;;;;;;;16.70;95.20;;;;;;5053894;28;20331;-66
2023/09/26 21:08:38;;;;;;;;;;;16.80;95.30;;;;;;5054452;28;19909;-67
2023/09/26 21:11:04;;;;;;;;;;;16.80;95.40;;;;;;5045368;28;19972;-66
2023/09/26 21:13:31;;;;;;;;;;;16.80;95.30;;;;;;5044191;28;19930;-66
2023/09/26 21:16:10;;;;;;;;;;;16.80;95.40;;;;;;5042431;28;19971;-66
2023/09/26 21:18:40;;;;;;;;;;;16.90;95.30;;;;;;5054245;28;20326;-66
2023/09/26 21:21:13;;;;;;;;;;;16.90;95.30;;;;;;5053864;28;19959;-66
2023/09/26 21:23:39;;;;;;;;;;;16.90;95.30;;;;;;5053172;28;19922;-75
2023/09/26 21:26:11;;;;;;;;;;;17.00;95.40;;;;;;5053946;28;20391;-76
2023/09/26 21:28:38;;;;;;;;;;;17.00;95.20;;;;;;5054204;28;19911;-76
2023/09/26 21:31:05;;;;;;;;;;;17.00;95.20;;;;;;5054019;28;19915;-76
2023/09/26 21:33:31;;;;;;;;;;;17.00;95.10;;;;;;5052964;28;19915;-76
2023/09/26 21:35:58;;;;;;;;;;;17.00;95.10;;;;;;5053264;28;19919;-76
2023/09/26 21:38:25;;;;;;;;;;;17.10;95.10;;;;;;5054117;28;19956;-67
2023/09/26 21:40:52;;;;;;;;;;;17.10;95.10;;;;;;5054139;28;20271;-66
2023/09/26 21:43:18;;;;;;;;;;;17.10;95.10;;;;;;5053773;28;19905;-66
2023/09/26 21:45:45;;;;;;;;;;;17.20;95.20;;;;;;5054255;28;19905;-66
2023/09/26 21:48:11;;;;;;;;;;;17.20;95.20;;;;;;5052548;28;20366;-66
2023/09/26 21:50:38;;;;;;;;;;;17.20;95.10;;;;;;5053486;28;19968;-67
2023/09/26 21:53:04;;;;;;;;;;;17.20;95.10;;;;;;5054017;28;19956;-67
2023/09/26 21:55:31;;;;;;;;;;;17.20;95.20;;;;;;5053642;28;20274;-66
2023/09/26 21:57:58;;;;;;;;;;;17.20;95.20;;;;;;5053704;28;19959;-66
2023/09/26 22:00:25;;;;;;;;;;;17.20;95.20;;;;;;5053607;28;20401;-67
2023/09/26 22:02:51;;;;;;;;;;;17.20;95.20;;;;;;5053974;28;19908;-66
2023/09/26 22:05:21;;;;;;;;;;;17.30;95.20;;;;;;5053826;28;19905;-66
2023/09/26 22:07:48;;;;;;;;;;;17.30;95.20;;;;;;5053675;28;20363;-66
2023/09/26 22:10:15;;;;;;;;;;;17.30;95.20;;;;;;5053487;28;19911;-67
2023/09/26 22:12:42;;;;;;;;;;;17.40;95.10;;;;;;5035535;28;19915;-67
2023/09/26 22:15:11;;;;;;;;;;;17.40;95.10;;;;;;5053285;28;19928;-67
2023/09/26 22:17:41;;;;;;;;;;;17.40;95.20;;;;;;5053319;28;19917;-66
2023/09/26 22:20:09;;;;;;;;;;;17.40;95.20;;;;;;5053361;28;19905;-67
2023/09/26 22:22:35;;;;;;;;;;;17.50;95.20;;;;;;5053664;28;19909;-66
2023/09/26 22:25:03;;;;;;;;;;;17.50;95.20;;;;;;5046207;28;20422;-66
2023/09/26 22:27:30;;;;;;;;;;;17.50;95.20;;;;;;5033171;28;19955;-67
2023/09/26 22:29:56;;;;;;;;;;;17.60;95.30;;;;;;5033276;28;19963;-67
2023/09/26 22:32:23;;;;;;;;;;;17.60;95.30;;;;;;5033619;28;19909;-67
